createdAt,value
2018-03-26T00:00:23.612Z,8.10
2018-03-26T00:02:51.380Z,8.10
2018-03-26T00:05:18.846Z,8.00
2018-03-26T00:07:47.216Z,8.10
2018-03-26T00:10:14.984Z,8.00
2018-03-26T00:12:42.743Z,8.00
2018-03-26T00:15:10.212Z,8.00
2018-03-26T00:17:37.674Z,7.90
2018-03-26T00:20:05.436Z,7.90
2018-03-26T00:22:33.204Z,7.80
2018-03-26T00:25:00.956Z,7.80
2018-03-26T00:27:28.416Z,7.80
2018-03-26T00:29:56.105Z,7.70
2018-03-26T00:32:23.644Z,7.70
2018-03-26T00:34:51.380Z,7.60
2018-03-26T00:37:18.871Z,7.60
2018-03-26T00:39:46.336Z,7.70
2018-03-26T00:42:14.700Z,7.60
2018-03-26T00:44:42.164Z,7.60
2018-03-26T00:47:09.932Z,7.70
2018-03-26T00:49:37.693Z,7.70
2018-03-26T00:52:05.151Z,7.70
2018-03-26T00:54:32.820Z,7.70
2018-03-26T00:57:00.308Z,7.60
2018-03-26T00:59:27.751Z,7.60
2018-03-26T01:01:55.225Z,7.50
2018-03-26T01:04:22.744Z,7.50
2018-03-26T01:06:50.207Z,7.50
2018-03-26T01:09:17.744Z,7.50
2018-03-26T01:11:45.169Z,7.40
2018-03-26T01:14:12.880Z,7.40
2018-03-26T01:16:41.860Z,7.30
2018-03-26T01:19:09.341Z,7.20
2018-03-26T01:21:37.105Z,7.20
2018-03-26T01:24:04.867Z,7.20
2018-03-26T01:26:32.318Z,7.10
2018-03-26T01:29:00.016Z,7.10
2018-03-26T01:31:27.479Z,7.00
2018-03-26T01:33:55.010Z,6.90
2018-03-26T01:36:22.766Z,6.80
2018-03-26T01:38:50.240Z,6.80
2018-03-26T01:41:17.999Z,6.80
2018-03-26T01:43:45.455Z,6.90
2018-03-26T01:46:13.028Z,6.90
2018-03-26T01:48:41.292Z,7.00
2018-03-26T01:51:09.056Z,7.00
2018-03-26T01:53:36.737Z,7.00
2018-03-26T01:56:04.199Z,7.00
2018-03-26T01:58:31.661Z,7.10
2018-03-26T02:00:59.124Z,7.10
2018-03-26T02:03:26.667Z,7.10
2018-03-26T02:05:54.135Z,7.10
2018-03-26T02:08:21.875Z,7.10
2018-03-26T02:10:49.556Z,7.10
2018-03-26T02:13:17.011Z,7.10
2018-03-26T02:15:45.247Z,7.10
2018-03-26T02:18:12.712Z,7.00
2018-03-26T02:20:40.392Z,7.00
2018-03-26T02:23:07.859Z,7.10
2018-03-26T02:25:35.624Z,7.00
2018-03-26T02:28:03.290Z,7.10
2018-03-26T02:30:30.755Z,7.00
2018-03-26T02:32:58.221Z,7.00
2018-03-26T02:35:25.678Z,7.00
2018-03-26T02:37:53.162Z,6.90
2018-03-26T02:40:20.669Z,6.90
2018-03-26T02:42:48.432Z,6.90
2018-03-26T02:45:16.112Z,7.00
2018-03-26T02:47:43.664Z,6.90
2018-03-26T02:50:11.123Z,6.90
2018-03-26T02:52:38.881Z,6.90
2018-03-26T02:55:06.366Z,6.90
2018-03-26T02:57:34.016Z,6.90
2018-03-26T03:00:01.559Z,6.80
2018-03-26T03:02:29.023Z,6.80
2018-03-26T03:04:56.693Z,6.80
2018-03-26T03:07:24.961Z,6.70
2018-03-26T03:09:52.625Z,6.70
2018-03-26T03:12:20.384Z,6.70
2018-03-26T03:14:48.148Z,6.60
2018-03-26T03:17:15.607Z,6.60
2018-03-26T03:19:43.372Z,6.50
2018-03-26T03:22:11.056Z,6.60
2018-03-26T03:24:38.515Z,6.60
2018-03-26T03:27:05.976Z,6.60
2018-03-26T03:29:33.437Z,6.60
2018-03-26T03:32:00.908Z,6.60
2018-03-26T03:34:28.376Z,6.60
2018-03-26T03:36:55.844Z,6.60
2018-03-26T03:39:23.343Z,6.50
2018-03-26T03:41:50.808Z,6.60
2018-03-26T03:44:18.488Z,6.50
2018-03-26T03:46:46.009Z,6.40
2018-03-26T03:49:13.483Z,6.30
2018-03-26T03:51:40.942Z,6.40
2018-03-26T03:54:08.416Z,6.30
2018-03-26T03:56:36.174Z,6.20
2018-03-26T03:59:03.938Z,6.20
2018-03-26T04:01:31.387Z,6.20
2018-03-26T04:03:59.064Z,6.20
2018-03-26T04:06:26.620Z,6.10
2018-03-26T04:08:54.377Z,6.10
2018-03-26T04:11:21.833Z,6.00
2018-03-26T04:13:49.300Z,6.00
2018-03-26T04:16:17.190Z,6.00
2018-03-26T04:18:45.419Z,6.10
2018-03-26T04:21:12.876Z,6.10
2018-03-26T04:23:40.331Z,6.10
2018-03-26T04:26:07.801Z,6.00
2018-03-26T04:28:35.256Z,6.00
2018-03-26T04:31:02.724Z,6.00
2018-03-26T04:33:30.491Z,6.00
2018-03-26T04:35:57.955Z,6.00
2018-03-26T04:38:25.713Z,6.00
2018-03-26T04:40:53.399Z,6.00
2018-03-26T04:43:20.883Z,6.10
2018-03-26T04:45:48.404Z,6.10
2018-03-26T04:48:15.977Z,6.10
2018-03-26T04:50:44.213Z,6.10
2018-03-26T04:53:11.692Z,6.10
2018-03-26T04:55:39.158Z,6.10
2018-03-26T04:58:06.619Z,6.10
2018-03-26T05:00:34.101Z,6.10
2018-03-26T05:03:01.753Z,6.10
2018-03-26T05:05:29.211Z,6.00
2018-03-26T05:07:56.675Z,6.00
2018-03-26T05:10:24.203Z,6.00
2018-03-26T05:12:51.667Z,5.90
2018-03-26T05:15:19.424Z,5.80
2018-03-26T05:17:46.888Z,5.70
2018-03-26T05:20:14.387Z,5.70
2018-03-26T05:22:42.082Z,5.60
2018-03-26T05:25:09.563Z,5.50
2018-03-26T05:27:37.031Z,5.40
2018-03-26T05:30:04.792Z,5.40
2018-03-26T05:32:32.252Z,5.40
2018-03-26T05:34:59.949Z,5.40
2018-03-26T05:37:27.476Z,5.40
2018-03-26T05:39:54.926Z,5.40
2018-03-26T05:42:22.692Z,5.50
2018-03-26T05:44:50.386Z,5.50
2018-03-26T05:47:17.844Z,5.50
2018-03-26T05:49:45.307Z,5.40
2018-03-26T05:52:12.833Z,5.50
2018-03-26T05:54:40.244Z,5.50
2018-03-26T05:57:07.765Z,5.60
2018-03-26T05:59:35.516Z,5.50
2018-03-26T06:02:03.332Z,5.50
2018-03-26T06:04:30.755Z,5.50
2018-03-26T06:06:58.275Z,5.40
2018-03-26T06:09:25.957Z,5.40
2018-03-26T06:11:53.460Z,5.40
2018-03-26T06:14:21.097Z,5.40
2018-03-26T06:17:00.492Z,5.50
2018-03-26T06:19:27.961Z,5.50
2018-03-26T06:21:55.455Z,5.50
2018-03-26T06:24:22.911Z,5.50
2018-03-26T06:26:50.375Z,5.50
2018-03-26T06:29:17.851Z,5.50
2018-03-26T06:31:45.417Z,5.50
2018-03-26T06:34:12.873Z,5.50
2018-03-26T06:36:46.000Z,5.50
2018-03-26T06:39:26.292Z,5.50
2018-03-26T06:41:54.564Z,5.70
2018-03-26T06:44:22.324Z,5.70
2018-03-26T06:46:50.008Z,5.70
2018-03-26T06:49:17.465Z,5.80
2018-03-26T06:51:44.931Z,5.70
2018-03-26T06:54:12.612Z,5.70
2018-03-26T06:56:40.230Z,5.70
2018-03-26T06:59:07.701Z,5.70
2018-03-26T07:01:35.448Z,5.70
2018-03-26T07:04:03.209Z,5.70
2018-03-26T07:06:30.672Z,5.60
2018-03-26T07:08:58.137Z,5.70
2018-03-26T07:11:26.424Z,5.70
2018-03-26T07:13:53.892Z,5.70
2018-03-26T07:16:21.571Z,5.70
2018-03-26T07:18:49.192Z,5.60
2018-03-26T07:21:16.947Z,5.70
2018-03-26T07:23:44.468Z,5.80
2018-03-26T07:26:12.103Z,5.80
2018-03-26T07:28:39.564Z,5.90
2018-03-26T07:31:07.095Z,5.90
2018-03-26T07:33:34.547Z,5.90
2018-03-26T07:36:02.317Z,5.80
2018-03-26T07:38:30.077Z,5.90
2018-03-26T07:40:57.767Z,5.90
2018-03-26T07:43:25.308Z,5.70
2018-03-26T07:45:52.765Z,5.60
2018-03-26T07:48:20.230Z,5.60
2018-03-26T07:50:48.029Z,5.50
2018-03-26T07:53:15.700Z,5.40
2018-03-26T07:55:43.161Z,5.40
2018-03-26T07:58:10.660Z,5.50
2018-03-26T08:00:38.129Z,5.70
2018-03-26T08:03:05.860Z,5.80
2018-03-26T08:05:33.332Z,5.90
2018-03-26T08:08:00.796Z,6.00
2018-03-26T08:10:28.360Z,6.10
2018-03-26T08:12:56.023Z,6.20
2018-03-26T08:15:23.493Z,6.30
2018-03-26T08:17:51.011Z,6.40
2018-03-26T08:20:18.475Z,6.50
2018-03-26T08:22:46.015Z,6.60
2018-03-26T08:25:13.632Z,6.60
2018-03-26T08:27:41.317Z,6.60
2018-03-26T08:30:08.787Z,6.80
2018-03-26T08:32:36.303Z,6.90
2018-03-26T08:35:04.072Z,7.00
2018-03-26T08:37:31.527Z,7.00
2018-03-26T08:39:59.289Z,7.00
2018-03-26T08:42:27.259Z,7.00
2018-03-26T08:44:54.683Z,7.10
2018-03-26T08:47:22.200Z,7.20
2018-03-26T08:49:49.838Z,7.30
2018-03-26T08:52:17.659Z,7.30
2018-03-26T08:54:45.260Z,7.30
2018-03-26T08:57:13.038Z,7.40
2018-03-26T08:59:40.496Z,7.50
2018-03-26T09:02:07.955Z,7.70
2018-03-26T09:04:35.412Z,7.70
2018-03-26T09:07:03.167Z,7.70
2018-03-26T09:09:30.628Z,7.70
2018-03-26T09:11:58.413Z,8.00
2018-03-26T09:14:26.639Z,8.10
2018-03-26T09:16:54.234Z,8.00
2018-03-26T09:19:21.711Z,8.90
2018-03-26T09:21:49.453Z,11.10
2018-03-26T09:24:16.923Z,13.90
2018-03-26T09:26:44.384Z,15.90
2018-03-26T09:29:12.136Z,17.70
2018-03-26T09:31:39.646Z,18.80
2018-03-26T09:34:07.365Z,19.70
2018-03-26T09:36:35.735Z,20.40
2018-03-26T09:39:03.203Z,20.30
2018-03-26T09:41:30.664Z,21.40
2018-03-26T09:43:58.126Z,22.30
2018-03-26T09:46:25.587Z,21.50
2018-03-26T09:48:53.337Z,21.80
2018-03-26T09:51:20.806Z,22.20
2018-03-26T09:53:48.570Z,22.30
2018-03-26T09:56:16.321Z,22.60
2018-03-26T09:58:44.125Z,22.90
2018-03-26T10:01:17.496Z,22.30
2018-03-26T10:03:44.979Z,22.20
2018-03-26T10:06:13.199Z,22.40
2018-03-26T10:08:40.659Z,22.30
2018-03-26T10:11:08.120Z,22.40
2018-03-26T10:13:35.576Z,23.40
2018-03-26T10:16:03.036Z,23.30
2018-03-26T10:18:30.487Z,23.90
2018-03-26T10:20:57.948Z,24.70
2018-03-26T10:23:25.584Z,24.90
2018-03-26T10:25:53.111Z,25.20
2018-03-26T10:28:20.572Z,24.50
2018-03-26T10:30:48.023Z,24.10
2018-03-26T10:33:15.492Z,24.30
2018-03-26T10:35:43.732Z,23.80
2018-03-26T10:38:11.185Z,23.80
2018-03-26T10:40:38.859Z,23.30
2018-03-26T10:43:06.325Z,22.80
2018-03-26T10:45:33.786Z,23.00
2018-03-26T10:48:01.552Z,22.80
2018-03-26T10:50:29.316Z,22.00
2018-03-26T10:52:56.783Z,22.10
2018-03-26T10:55:24.236Z,22.70
2018-03-26T10:57:51.987Z,23.30
2018-03-26T11:00:19.483Z,23.50
2018-03-26T11:02:46.904Z,23.50
2018-03-26T11:05:14.377Z,22.30
2018-03-26T11:07:42.082Z,21.80
2018-03-26T11:10:09.595Z,22.20
2018-03-26T11:12:37.055Z,22.90
2018-03-26T11:15:04.511Z,22.10
2018-03-26T11:17:31.975Z,22.50
2018-03-26T11:19:59.724Z,22.10
2018-03-26T11:22:27.176Z,22.20
2018-03-26T11:24:54.947Z,21.90
2018-03-26T11:27:22.424Z,21.20
2018-03-26T11:29:50.083Z,20.90
2018-03-26T11:32:17.628Z,21.10
2018-03-26T11:34:45.308Z,22.20
2018-03-26T11:37:12.852Z,22.20
2018-03-26T11:39:40.615Z,22.30
2018-03-26T11:42:08.385Z,22.50
2018-03-26T11:44:36.148Z,22.70
2018-03-26T11:47:03.599Z,22.60
2018-03-26T11:49:31.068Z,21.50
2018-03-26T11:51:58.535Z,21.80
2018-03-26T11:54:26.138Z,22.40
2018-03-26T11:56:53.663Z,23.00
2018-03-26T11:59:21.203Z,22.70
2018-03-26T12:01:48.679Z,22.90
2018-03-26T12:04:16.425Z,23.40
2018-03-26T12:06:44.191Z,23.40
2018-03-26T12:09:11.968Z,23.60
2018-03-26T12:11:39.416Z,23.70
2018-03-26T12:14:06.879Z,24.50
2018-03-26T12:16:34.636Z,25.60
2018-03-26T12:19:02.101Z,25.80
2018-03-26T12:21:29.557Z,26.10
2018-03-26T12:24:08.890Z,26.20
2018-03-26T12:26:36.458Z,26.40
2018-03-26T12:29:15.692Z,26.60
2018-03-26T12:31:43.216Z,26.90
2018-03-26T12:34:22.592Z,27.10
2018-03-26T12:36:50.044Z,27.60
2018-03-26T12:39:17.616Z,26.40
2018-03-26T12:41:45.080Z,25.60
2018-03-26T12:47:08.200Z,25.40
2018-03-26T12:49:35.665Z,25.10
2018-03-26T12:52:14.736Z,24.30
2018-03-26T12:54:42.283Z,24.40
2018-03-26T12:57:21.518Z,24.50
2018-03-26T12:59:49.285Z,24.80
2018-03-26T13:02:26.300Z,25.00
2018-03-26T13:04:53.965Z,24.80
2018-03-26T13:07:21.416Z,24.60
2018-03-26T13:09:48.944Z,25.40
2018-03-26T13:12:16.712Z,25.10
2018-03-26T13:14:44.478Z,23.90
2018-03-26T13:17:12.243Z,24.00
2018-03-26T13:19:39.700Z,24.50
2018-03-26T13:22:07.165Z,25.20
2018-03-26T13:24:34.618Z,24.10
2018-03-26T13:27:02.084Z,23.00
2018-03-26T13:29:29.845Z,22.80
2018-03-26T13:31:57.304Z,23.10
2018-03-26T13:34:25.065Z,23.60
2018-03-26T13:36:52.740Z,24.10
2018-03-26T13:39:20.295Z,24.00
2018-03-26T13:41:47.852Z,23.90
2018-03-26T13:44:15.419Z,23.40
2018-03-26T13:46:42.967Z,23.00
2018-03-26T13:49:10.432Z,24.00
2018-03-26T13:51:38.116Z,24.50
2018-03-26T13:54:05.569Z,24.80
2018-03-26T13:56:33.027Z,25.00
2018-03-26T13:59:00.565Z,25.60
2018-03-26T14:01:28.332Z,25.90
2018-03-26T14:03:55.796Z,26.10
2018-03-26T14:06:23.563Z,25.20
2018-03-26T14:09:02.751Z,26.20
2018-03-26T14:11:42.178Z,25.30
2018-03-26T14:14:21.404Z,25.40
2018-03-26T14:17:01.016Z,25.20
2018-03-26T14:19:28.767Z,25.10
2018-03-26T14:21:56.532Z,24.40
2018-03-26T14:24:23.987Z,23.80
2018-03-26T14:26:51.756Z,23.40
2018-03-26T14:29:19.220Z,23.30
2018-03-26T14:31:46.900Z,23.30
2018-03-26T14:34:14.444Z,22.70
2018-03-26T14:36:42.114Z,22.50
2018-03-26T14:39:09.565Z,21.50
2018-03-26T14:41:37.044Z,20.70
2018-03-26T14:44:04.503Z,20.30
2018-03-26T14:46:31.975Z,20.20
2018-03-26T14:48:59.426Z,20.40
2018-03-26T14:51:26.884Z,21.30
2018-03-26T14:53:54.348Z,21.80
2018-03-26T14:56:21.864Z,21.20
2018-03-26T14:58:49.323Z,20.20
2018-03-26T15:01:18.283Z,19.00
2018-03-26T15:03:46.494Z,19.00
2018-03-26T15:06:14.156Z,18.80
2018-03-26T15:08:41.735Z,18.30
2018-03-26T15:11:09.538Z,18.00
2018-03-26T15:13:37.152Z,18.20
2018-03-26T15:16:04.613Z,18.00
2018-03-26T15:18:32.081Z,17.90
2018-03-26T15:20:59.827Z,18.10
2018-03-26T15:23:27.593Z,18.00
2018-03-26T15:25:55.047Z,18.50
2018-03-26T15:28:22.511Z,18.60
2018-03-26T15:30:50.276Z,18.70
2018-03-26T15:33:19.250Z,18.00
2018-03-26T15:35:46.725Z,18.00
2018-03-26T15:38:15.685Z,17.20
2018-03-26T15:40:43.156Z,17.20
2018-03-26T15:43:10.826Z,16.30
2018-03-26T15:45:38.400Z,15.70
2018-03-26T15:48:06.784Z,15.20
2018-03-26T15:50:34.248Z,15.10
2018-03-26T15:53:02.004Z,14.70
2018-03-26T15:55:29.693Z,14.60
2018-03-26T15:57:57.164Z,14.50
2018-03-26T16:00:24.631Z,14.20
2018-03-26T16:02:57.681Z,14.10
2018-03-26T16:05:25.347Z,14.00
2018-03-26T16:07:52.897Z,14.10
2018-03-26T16:10:20.363Z,13.90
2018-03-26T16:12:48.007Z,13.70
2018-03-26T16:15:15.488Z,13.60
2018-03-26T16:17:43.036Z,13.50
2018-03-26T16:20:10.800Z,13.60
2018-03-26T16:22:38.264Z,13.70
2018-03-26T16:25:06.020Z,13.70
2018-03-26T16:27:33.791Z,13.90
2018-03-26T16:30:01.259Z,13.80
2018-03-26T16:32:28.928Z,13.90
2018-03-26T16:34:56.456Z,14.00
2018-03-26T16:37:23.924Z,14.00
2018-03-26T16:39:51.693Z,14.00
2018-03-26T16:42:21.495Z,14.00
2018-03-26T16:44:48.956Z,14.10
2018-03-26T16:47:16.528Z,14.00
2018-03-26T16:49:44.030Z,13.80
2018-03-26T16:52:11.660Z,13.60
2018-03-26T16:54:39.133Z,13.40
2018-03-26T16:57:06.667Z,13.40
2018-03-26T16:59:34.151Z,13.40
2018-03-26T17:02:01.797Z,13.30
2018-03-26T17:04:29.265Z,13.30
2018-03-26T17:06:56.803Z,13.10
2018-03-26T17:09:24.259Z,13.10
2018-03-26T17:11:51.948Z,12.90
2018-03-26T17:14:19.416Z,12.80
2018-03-26T17:16:46.912Z,12.80
2018-03-26T17:19:14.356Z,12.60
2018-03-26T17:21:41.856Z,12.40
2018-03-26T17:24:09.393Z,12.40
2018-03-26T17:26:36.796Z,12.30
2018-03-26T17:29:04.540Z,12.30
2018-03-26T17:31:32.227Z,12.20
2018-03-26T17:33:59.760Z,12.10
2018-03-26T17:36:27.228Z,12.10
2018-03-26T17:38:54.689Z,12.10
2018-03-26T17:41:22.155Z,12.10
2018-03-26T17:43:49.904Z,12.10
2018-03-26T17:46:17.663Z,12.00
2018-03-26T17:48:45.124Z,11.90
2018-03-26T17:51:12.886Z,11.80
2018-03-26T17:53:40.352Z,11.80
2018-03-26T17:56:07.832Z,11.80
2018-03-26T17:58:35.292Z,11.90
2018-03-26T18:01:03.047Z,11.80
2018-03-26T18:03:31.353Z,11.50
2018-03-26T18:05:58.865Z,11.50
2018-03-26T18:08:26.459Z,11.40
2018-03-26T18:10:54.024Z,11.50
2018-03-26T18:13:21.545Z,11.60
2018-03-26T18:15:49.009Z,11.60
2018-03-26T18:18:16.476Z,11.60
2018-03-26T18:20:43.937Z,11.50
2018-03-26T18:23:11.402Z,11.50
2018-03-26T18:25:39.143Z,11.40
2018-03-26T18:28:06.607Z,11.50
2018-03-26T18:30:34.372Z,11.50
2018-03-26T18:33:01.837Z,11.40
2018-03-26T18:35:29.596Z,11.50
2018-03-26T18:37:57.164Z,11.40
2018-03-26T18:40:24.812Z,11.40
2018-03-26T18:42:52.264Z,11.40
2018-03-26T18:45:19.729Z,11.30
2018-03-26T18:47:48.692Z,11.20
2018-03-26T18:50:16.180Z,11.20
2018-03-26T18:52:43.940Z,11.20
2018-03-26T18:55:11.869Z,11.10
2018-03-26T18:57:39.476Z,11.10
2018-03-26T19:00:06.945Z,10.90
2018-03-26T19:02:34.524Z,10.90
2018-03-26T19:05:02.861Z,10.90
2018-03-26T19:07:30.447Z,10.80
2018-03-26T19:09:58.001Z,10.90
2018-03-26T19:12:25.668Z,10.90
2018-03-26T19:14:53.141Z,10.90
2018-03-26T19:17:20.600Z,11.00
2018-03-26T19:19:48.070Z,11.00
2018-03-26T19:22:15.601Z,10.90
2018-03-26T19:24:43.271Z,10.90
2018-03-26T19:27:10.818Z,11.00
2018-03-26T19:29:38.274Z,11.00
2018-03-26T19:32:05.741Z,11.00
2018-03-26T19:34:33.504Z,11.00
2018-03-26T19:37:01.263Z,11.00
2018-03-26T19:39:28.715Z,11.00
2018-03-26T19:41:56.180Z,11.00
2018-03-26T19:44:23.873Z,11.00
2018-03-26T19:46:51.355Z,10.90
2018-03-26T19:49:18.812Z,10.80
2018-03-26T19:51:46.281Z,10.60
2018-03-26T19:54:13.778Z,10.50
2018-03-26T19:56:41.412Z,10.40
2018-03-26T19:59:08.997Z,10.40
2018-03-26T20:01:36.759Z,10.30
2018-03-26T20:04:04.220Z,10.20
2018-03-26T20:06:31.691Z,10.10
2018-03-26T20:08:59.156Z,10.00
2018-03-26T20:11:26.901Z,9.90
2018-03-26T20:13:54.359Z,9.90
2018-03-26T20:16:21.836Z,9.70
2018-03-26T20:18:49.584Z,9.50
2018-03-26T20:21:17.075Z,9.20
2018-03-26T20:23:44.540Z,9.00
2018-03-26T20:26:12.266Z,8.90
2018-03-26T20:28:39.733Z,8.90
2018-03-26T20:31:07.195Z,8.80
2018-03-26T20:33:34.948Z,8.70
2018-03-26T20:36:02.415Z,8.70
2018-03-26T20:38:30.104Z,8.70
2018-03-26T20:40:57.739Z,8.80
2018-03-26T20:43:26.009Z,8.70
2018-03-26T20:45:53.468Z,8.70
2018-03-26T20:48:20.956Z,8.70
2018-03-26T20:50:48.687Z,8.60
2018-03-26T20:53:16.326Z,8.60
2018-03-26T20:55:43.852Z,8.50
2018-03-26T20:58:11.526Z,8.50
2018-03-26T21:00:38.981Z,8.40
2018-03-26T21:03:06.508Z,8.40
2018-03-26T21:05:33.967Z,8.40
2018-03-26T21:08:01.512Z,8.50
2018-03-26T21:10:28.976Z,8.40
2018-03-26T21:12:56.488Z,8.40
2018-03-26T21:15:23.947Z,8.40
2018-03-26T21:17:51.440Z,8.30
2018-03-26T21:20:19.112Z,8.30
2018-03-26T21:22:46.876Z,8.20
2018-03-26T21:25:14.351Z,8.10
2018-03-26T21:27:41.808Z,8.10
2018-03-26T21:30:09.264Z,8.00
2018-03-26T21:32:37.008Z,7.90
2018-03-26T21:35:04.465Z,7.80
2018-03-26T21:37:31.923Z,7.70
2018-03-26T21:39:59.395Z,7.70
2018-03-26T21:42:26.864Z,7.50
2018-03-26T21:44:54.543Z,7.40
2018-03-26T21:47:22.064Z,7.30
2018-03-26T21:49:49.829Z,7.20
2018-03-26T21:52:17.591Z,7.20
2018-03-26T21:54:45.067Z,7.10
2018-03-26T21:57:12.520Z,7.10
2018-03-26T21:59:40.276Z,7.00
2018-03-26T22:02:08.040Z,7.00
2018-03-26T22:04:35.567Z,6.80
2018-03-26T22:07:03.180Z,6.80
2018-03-26T22:09:30.639Z,6.80
2018-03-26T22:11:59.020Z,6.80
2018-03-26T22:14:26.484Z,6.80
2018-03-26T22:16:54.017Z,6.80
2018-03-26T22:19:21.784Z,6.80
2018-03-26T22:21:49.244Z,6.90
2018-03-26T22:24:16.919Z,6.80
2018-03-26T22:26:44.380Z,6.90
2018-03-26T22:29:11.845Z,6.90
2018-03-26T22:31:39.320Z,7.00
2018-03-26T22:34:06.771Z,7.00
2018-03-26T22:36:34.297Z,6.90
2018-03-26T22:39:01.762Z,6.80
2018-03-26T22:41:29.218Z,6.70
2018-03-26T22:43:56.680Z,6.60
2018-03-26T22:46:24.436Z,6.50
2018-03-26T22:48:51.900Z,6.60
2018-03-26T22:51:19.357Z,6.50
2018-03-26T22:53:46.804Z,6.40
2018-03-26T22:56:14.271Z,6.30
2018-03-26T22:58:41.732Z,6.20
2018-03-26T23:01:09.487Z,6.10
2018-03-26T23:03:36.944Z,6.00
2018-03-26T23:06:04.707Z,6.00
2018-03-26T23:08:32.163Z,6.00
2018-03-26T23:10:59.615Z,5.90
2018-03-26T23:13:27.076Z,5.90
2018-03-26T23:15:54.532Z,5.80
2018-03-26T23:18:22.316Z,5.80
2018-03-26T23:20:50.080Z,5.80
2018-03-26T23:23:17.841Z,5.80
2018-03-26T23:25:45.309Z,5.80
2018-03-26T23:28:13.060Z,5.80
2018-03-26T23:30:40.830Z,5.90
2018-03-26T23:33:08.594Z,6.00
2018-03-26T23:35:36.058Z,6.10
2018-03-26T23:38:03.620Z,6.20
2018-03-26T23:40:31.275Z,6.20
2018-03-26T23:42:59.049Z,6.20
2018-03-26T23:45:26.508Z,6.20
2018-03-26T23:47:54.267Z,6.20
2018-03-26T23:50:21.720Z,6.10
2018-03-26T23:52:49.177Z,6.10
2018-03-26T23:55:16.651Z,6.10
2018-03-26T23:57:44.311Z,6.10
